Time;durP1;ratioP1;P1;durP2;ratioP2;P2;SDS_P1;SDS_P2;PMS_P1;PMS_P2;Temp;Humidity;BMP_temperature;BMP_pressure;BME280_temperature;BME280_humidity;BME280_pressure;Samples;Min_cycle;Max_cycle;Signal;HPM_P1;HPM_P2
2022/06/30 00:00:12;;;;;;;6.30;5.90;;;;;;;17.96;87.30;100474.00;4962109;28;20002;-71
2022/06/30 00:02:38;;;;;;;6.20;5.80;;;;;;;17.97;87.56;100473.00;4970940;28;20077;-71
2022/06/30 00:05:04;;;;;;;6.18;5.70;;;;;;;17.97;87.46;100470.31;4992214;28;20048;-71
2022/06/30 00:07:29;;;;;;;6.55;6.15;;;;;;;17.99;87.49;100473.63;4951984;28;20907;-70
2022/06/30 00:09:55;;;;;;;6.05;5.70;;;;;;;17.93;87.46;100477.09;4984483;28;20090;-70
2022/06/30 00:12:20;;;;;;;6.53;5.93;;;;;;;17.93;87.35;100479.75;4968869;28;20071;-71
2022/06/30 00:14:46;;;;;;;6.60;6.00;;;;;;;18.00;87.05;100475.28;4993883;28;20032;-71
2022/06/30 00:17:11;;;;;;;6.90;5.90;;;;;;;17.97;87.00;100465.78;4989831;28;20021;-70
2022/06/30 00:19:37;;;;;;;6.43;5.93;;;;;;;17.94;86.82;100466.19;4991316;28;20277;-68
2022/06/30 00:22:05;;;;;;;6.80;6.20;;;;;;;17.91;86.98;100469.25;4981986;28;20823;-71
2022/06/30 00:24:30;;;;;;;6.72;6.10;;;;;;;17.83;87.00;100456.78;4987704;28;20014;-71
2022/06/30 00:26:56;;;;;;;6.78;6.38;;;;;;;17.82;87.02;100460.50;4981620;28;20017;-70
2022/06/30 00:29:21;;;;;;;6.90;6.30;;;;;;;17.74;87.30;100457.09;4950991;28;20014;-69
2022/06/30 00:31:47;;;;;;;7.05;6.32;;;;;;;17.73;87.18;100461.63;4981619;28;20038;-69
2022/06/30 00:34:12;;;;;;;7.15;6.65;;;;;;;17.68;87.47;100448.81;4966644;28;19998;-71
2022/06/30 00:36:37;;;;;;;7.05;6.38;;;;;;;17.60;87.77;100461.50;4966387;28;20010;-70
2022/06/30 00:39:03;;;;;;;6.93;6.28;;;;;;;17.51;88.44;100458.09;4969082;28;20010;-70
2022/06/30 00:41:28;;;;;;;6.72;6.32;;;;;;;17.55;87.95;100454.03;4963957;28;20421;-70
2022/06/30 00:43:54;;;;;;;6.78;6.30;;;;;;;17.60;87.57;100456.97;4951182;28;20026;-70
2022/06/30 00:46:19;;;;;;;7.22;6.57;;;;;;;17.50;88.33;100451.94;4998442;28;20017;-69
2022/06/30 00:48:45;;;;;;;7.47;6.90;;;;;;;17.57;88.29;100454.69;5011066;28;20066;-70
2022/06/30 00:51:10;;;;;;;6.88;6.28;;;;;;;17.51;88.27;100453.59;4989094;28;20039;-71
2022/06/30 00:53:37;;;;;;;7.07;6.50;;;;;;;17.55;88.09;100437.16;5006591;28;20523;-70
2022/06/30 00:56:04;;;;;;;7.43;6.65;;;;;;;17.46;88.34;100445.31;4990148;28;20033;-71
2022/06/30 00:58:29;;;;;;;8.07;7.30;;;;;;;17.38;88.83;100436.56;5007755;28;20021;-71
2022/06/30 01:00:55;;;;;;;7.85;6.85;;;;;;;17.40;89.33;100446.06;4957629;28;20536;-70
2022/06/30 01:03:20;;;;;;;10.10;6.60;;;;;;;17.45;88.98;100434.78;4970127;28;20983;-71
2022/06/30 01:05:46;;;;;;;8.45;7.00;;;;;;;17.43;89.00;100434.97;4966633;28;20026;-71
2022/06/30 01:08:11;;;;;;;8.88;7.03;;;;;;;17.42;88.94;100436.00;4968232;28;20129;-72
2022/06/30 01:13:20;;;;;;;7.88;7.18;;;;;;;17.45;88.93;100424.91;4971596;28;20636;-71
2022/06/30 01:15:46;;;;;;;8.45;7.68;;;;;;;17.53;88.83;100423.97;4995580;28;20499;-71
2022/06/30 01:18:11;;;;;;;7.88;7.25;;;;;;;17.59;88.42;100425.06;5008636;28;20025;-68
2022/06/30 01:20:37;;;;;;;7.63;7.13;;;;;;;17.53;88.36;100426.66;5007220;27;20274;-71
2022/06/30 01:23:03;;;;;;;7.70;7.10;;;;;;;17.51;88.59;100428.66;4989357;28;20052;-71
2022/06/30 01:25:28;;;;;;;8.07;7.30;;;;;;;17.47;88.43;100430.06;4972303;28;20018;-71
2022/06/30 01:27:54;;;;;;;8.05;7.40;;;;;;;17.52;88.16;100431.16;4975165;28;20025;-70
2022/06/30 01:30:20;;;;;;;8.40;7.60;;;;;;;17.43;88.18;100437.66;4998634;28;20034;-68
2022/06/30 01:32:45;;;;;;;7.80;7.20;;;;;;;17.32;88.56;100433.63;4971603;28;20041;-71
2022/06/30 01:35:10;;;;;;;9.18;7.63;;;;;;;17.33;88.88;100426.44;4986726;28;20459;-71
2022/06/30 01:37:52;;;;;;;7.65;7.13;;;;;;;17.38;88.81;100426.69;4972529;28;20103;-70
2022/06/30 01:40:18;;;;;;;8.10;7.57;;;;;;;17.32;88.93;100427.47;4992314;28;20117;-70
2022/06/30 01:42:44;;;;;;;8.55;7.95;;;;;;;17.29;89.17;100428.66;4970797;28;20501;-70
2022/06/30 01:45:09;;;;;;;8.30;7.70;;;;;;;17.21;89.27;100425.28;4983184;27;20525;-70
2022/06/30 01:47:35;;;;;;;8.43;7.72;;;;;;;17.13;89.74;100421.69;5011684;28;20017;-71
2022/06/30 01:50:01;;;;;;;8.32;7.63;;;;;;;17.10;89.82;100426.56;4992119;28;20021;-70
2022/06/30 01:52:27;;;;;;;9.88;8.18;;;;;;;17.04;90.27;100422.00;4975637;28;20726;-70
2022/06/30 01:54:52;;;;;;;8.27;7.57;;;;;;;17.05;89.86;100427.16;4966682;28;20030;-70
2022/06/30 01:57:18;;;;;;;8.90;8.10;;;;;;;17.13;90.02;100429.72;4966882;28;20258;-70
2022/06/30 01:59:43;;;;;;;8.77;8.18;;;;;;;17.14;90.33;100419.84;4973777;28;20950;-71
2022/06/30 02:02:08;;;;;;;7.95;7.38;;;;;;;17.14;89.76;100425.19;4954881;28;20037;-71
2022/06/30 02:04:53;;;;;;;8.43;7.82;;;;;;;17.01;89.25;100415.16;4986291;28;20660;-71
2022/06/30 02:07:19;;;;;;;8.20;7.57;;;;;;;17.01;89.37;100420.53;4973616;28;20181;-71
2022/06/30 02:09:45;;;;;;;8.15;7.32;;;;;;;17.00;89.35;100421.53;4970985;28;20053;-71
2022/06/30 02:14:55;;;;;;;10.13;8.10;;;;;;;16.74;90.09;100430.84;4980398;28;20029;-70
2022/06/30 02:17:21;;;;;;;8.38;7.68;;;;;;;16.79;89.94;100428.44;4991073;28;20843;-70
2022/06/30 02:19:46;;;;;;;8.15;7.60;;;;;;;16.79;89.92;100439.13;5009345;28;20080;-71
2022/06/30 02:22:11;;;;;;;8.55;7.65;;;;;;;16.69;90.40;100440.41;4987078;28;20616;-71
2022/06/30 02:24:37;;;;;;;8.25;7.75;;;;;;;16.78;89.70;100442.81;4950966;28;20018;-70
2022/06/30 02:27:03;;;;;;;8.57;7.93;;;;;;;16.77;89.69;100445.69;4984735;28;20017;-70
2022/06/30 02:29:28;;;;;;;8.38;7.75;;;;;;;16.74;89.66;100454.88;4954821;28;20026;-70
2022/06/30 02:31:53;;;;;;;9.00;8.30;;;;;;;16.63;90.10;100444.66;4953146;28;20040;-71
2022/06/30 02:34:19;;;;;;;8.68;7.95;;;;;;;16.63;90.08;100458.00;4988341;28;20441;-70
2022/06/30 02:36:44;;;;;;;8.57;7.93;;;;;;;16.61;90.48;100454.69;4987971;28;20943;-71
2022/06/30 02:39:10;;;;;;;8.65;8.05;;;;;;;16.58;90.32;100455.91;4951372;28;20223;-71
2022/06/30 02:41:35;;;;;;;9.10;8.40;;;;;;;16.52;89.96;100464.63;4957417;28;20067;-70
2022/06/30 02:44:02;;;;;;;9.38;8.48;;;;;;;16.55;90.32;100458.09;4973175;28;20048;-69
2022/06/30 02:46:27;;;;;;;9.25;8.40;;;;;;;16.45;90.50;100458.38;4992866;27;21013;-71
2022/06/30 02:48:53;;;;;;;9.02;8.43;;;;;;;16.39;90.61;100462.59;4990092;28;20021;-71
2022/06/30 02:51:18;;;;;;;8.40;7.80;;;;;;;16.39;90.52;100451.91;4974614;28;20013;-71
2022/06/30 02:53:44;;;;;;;8.80;8.13;;;;;;;16.36;90.48;100460.28;4992867;28;20025;-71
2022/06/30 02:56:11;;;;;;;9.85;8.45;;;;;;;16.37;90.71;100461.97;5011153;28;20376;-70
2022/06/30 02:58:37;;;;;;;8.60;8.00;;;;;;;16.44;90.20;100460.22;4976575;28;20591;-71
2022/06/30 03:01:02;;;;;;;9.73;8.70;;;;;;;16.52;89.99;100463.81;4991442;28;20236;-71
2022/06/30 03:03:28;;;;;;;9.27;8.45;;;;;;;16.45;89.88;100459.19;4976438;28;20060;-72
2022/06/30 03:05:53;;;;;;;8.73;8.18;;;;;;;16.40;89.95;100456.25;5014968;27;19997;-71
2022/06/30 03:08:19;;;;;;;9.07;8.38;;;;;;;16.28;90.13;100457.69;5045006;27;19997;-70
2022/06/30 03:10:44;;;;;;;8.98;8.10;;;;;;;16.28;90.30;100452.34;5017404;27;20016;-71
2022/06/30 03:13:10;;;;;;;8.50;7.90;;;;;;;16.19;90.53;100454.28;5027040;27;20506;-71
2022/06/30 03:15:36;;;;;;;9.55;8.73;;;;;;;16.25;90.54;100455.41;4993251;27;20016;-71
2022/06/30 03:18:01;;;;;;;9.73;8.93;;;;;;;16.29;90.81;100460.19;4992319;27;20013;-70
2022/06/30 03:20:27;;;;;;;8.85;8.25;;;;;;;16.30;90.57;100456.50;4993067;27;20020;-69
2022/06/30 03:22:52;;;;;;;9.73;8.18;;;;;;;16.26;90.34;100449.06;4992875;27;20228;-71
2022/06/30 03:25:18;;;;;;;8.93;8.23;;;;;;;16.19;90.54;100448.09;5008750;27;20480;-71
2022/06/30 03:27:43;;;;;;;8.88;8.25;;;;;;;16.19;90.77;100450.75;4991904;27;20084;-72
2022/06/30 03:30:09;;;;;;;9.55;8.50;;;;;;;16.08;91.14;100458.19;4999284;28;20028;-73
2022/06/30 03:32:34;;;;;;;9.75;8.77;;;;;;;16.16;91.04;100461.81;4990655;28;20064;-71
2022/06/30 03:35:00;;;;;;;9.32;8.52;;;;;;;16.18;91.05;100462.47;4989971;28;20028;-70
2022/06/30 03:37:25;;;;;;;9.57;8.15;;;;;;;16.24;90.53;100462.56;4974120;28;20917;-70
2022/06/30 03:39:51;;;;;;;8.73;8.00;;;;;;;16.23;90.21;100457.41;4981278;28;20288;-71
2022/06/30 03:42:16;;;;;;;9.40;8.35;;;;;;;16.16;90.33;100459.13;4989472;28;20245;-70
2022/06/30 03:44:41;;;;;;;8.60;8.00;;;;;;;16.12;90.68;100453.34;4999642;28;20002;-72
2022/06/30 03:47:07;;;;;;;9.27;8.48;;;;;;;16.04;91.26;100456.06;5022735;27;20024;-71
2022/06/30 03:49:33;;;;;;;10.20;8.52;;;;;;;16.10;91.12;100445.53;4993126;27;20009;-70
2022/06/30 03:51:58;;;;;;;9.15;8.30;;;;;;;16.11;91.08;100443.66;5000467;28;20013;-70
2022/06/30 03:54:23;;;;;;;9.07;8.20;;;;;;;16.06;91.25;100449.56;5001255;28;20860;-71
2022/06/30 03:56:49;;;;;;;11.05;8.25;;;;;;;16.07;91.36;100435.19;4954218;28;20013;-71
2022/06/30 03:59:14;;;;;;;9.07;8.38;;;;;;;16.12;91.09;100442.66;4968699;28;20181;-71
2022/06/30 04:01:40;;;;;;;9.70;8.80;;;;;;;16.11;91.19;100433.81;4979765;28;20026;-72
2022/06/30 04:04:05;;;;;;;9.27;8.48;;;;;;;16.11;91.13;100428.47;4970174;27;20057;-72
2022/06/30 04:06:31;;;;;;;9.20;8.20;;;;;;;16.22;90.95;100431.72;4984709;27;20065;-72
2022/06/30 04:08:56;;;;;;;8.55;7.82;;;;;;;16.17;91.03;100431.44;5019811;27;20021;-72
2022/06/30 04:11:22;;;;;;;9.13;8.23;;;;;;;16.20;90.91;100425.72;4989487;28;21036;-72
2022/06/30 04:13:47;;;;;;;13.65;8.52;;;;;;;16.23;90.79;100420.88;5000446;27;20390;-72
2022/06/30 04:16:12;;;;;;;9.52;8.55;;;;;;;16.27;90.72;100418.66;4981312;28;20779;-72
2022/06/30 04:18:38;;;;;;;8.95;8.10;;;;;;;16.35;90.37;100423.91;4986042;28;20196;-72
2022/06/30 04:21:03;;;;;;;9.38;8.60;;;;;;;16.48;89.92;100432.13;4988456;28;20025;-72
2022/06/30 04:23:29;;;;;;;9.00;8.20;;;;;;;16.59;89.33;100427.34;4990976;28;20017;-70
2022/06/30 04:25:54;;;;;;;8.90;8.25;;;;;;;16.54;89.95;100424.38;4994113;28;20030;-71
2022/06/30 04:28:20;;;;;;;10.18;9.38;;;;;;;16.53;90.72;100433.44;4970013;28;20014;-72
2022/06/30 04:33:29;;;;;;;9.43;8.63;;;;;;;16.60;90.82;100440.50;4985170;28;20438;-73
2022/06/30 04:35:54;;;;;;;9.57;8.77;;;;;;;16.62;90.63;100437.66;4988227;28;20478;-72
2022/06/30 04:38:20;;;;;;;10.02;9.10;;;;;;;16.77;91.07;100430.47;4989247;28;21024;-71
2022/06/30 04:43:30;;;;;;;9.57;8.77;;;;;;;16.85;91.07;100415.34;4986268;27;20044;-74
2022/06/30 04:45:56;;;;;;;9.95;9.15;;;;;;;16.91;90.92;100409.28;4963773;28;20025;-70
2022/06/30 04:48:21;;;;;;;9.13;8.35;;;;;;;16.94;90.65;100403.56;4988423;27;20081;-69
2022/06/30 04:50:46;;;;;;;12.10;9.10;;;;;;;16.98;90.63;100410.22;4993408;28;20713;-71
2022/06/30 04:53:12;;;;;;;9.93;9.02;;;;;;;17.03;90.38;100410.44;4981198;27;20164;-72
2022/06/30 04:55:39;;;;;;;10.60;9.70;;;;;;;17.12;90.07;100411.19;4999288;27;20029;-72
2022/06/30 04:58:04;;;;;;;10.25;9.43;;;;;;;17.16;90.08;100410.63;4974231;27;20423;-72
2022/06/30 05:00:29;;;;;;;10.35;9.35;;;;;;;17.20;90.05;100410.25;4991571;27;20033;-68
2022/06/30 05:02:55;;;;;;;9.90;9.00;;;;;;;17.25;89.93;100411.34;4960548;28;20967;-73
2022/06/30 05:05:20;;;;;;;10.20;9.35;;;;;;;17.32;89.82;100404.19;4971198;27;20245;-72
2022/06/30 05:07:46;;;;;;;9.77;9.02;;;;;;;17.37;89.51;100397.47;4970803;28;20866;-72
2022/06/30 05:10:11;;;;;;;9.65;9.02;;;;;;;17.48;89.63;100400.44;4966483;28;20025;-72
2022/06/30 05:12:37;;;;;;;9.90;8.98;;;;;;;17.55;89.94;100403.19;4969215;28;20021;-72
2022/06/30 05:15:02;;;;;;;9.15;8.52;;;;;;;17.61;89.66;100397.09;4975866;28;20117;-70
2022/06/30 05:17:28;;;;;;;8.90;8.30;;;;;;;17.60;89.78;100395.44;4980702;28;20013;-72
2022/06/30 05:19:53;;;;;;;9.00;8.30;;;;;;;17.68;89.37;100405.16;5017228;28;21062;-72
2022/06/30 05:22:19;;;;;;;8.68;8.07;;;;;;;17.78;89.57;100397.66;4982867;28;20961;-72
2022/06/30 05:27:39;;;;;;;8.73;8.02;;;;;;;18.05;88.80;100399.72;4929829;28;20016;-71
2022/06/30 05:30:05;;;;;;;10.38;8.60;;;;;;;18.19;88.90;100399.66;5000566;27;20527;-72
2022/06/30 05:32:30;;;;;;;9.68;8.75;;;;;;;18.32;88.77;100400.75;4986719;28;20925;-71
2022/06/30 05:34:56;;;;;;;11.18;8.50;;;;;;;18.34;89.04;100404.06;4966485;28;20033;-72
2022/06/30 05:37:21;;;;;;;9.10;8.35;;;;;;;18.45;89.19;100403.50;4981311;28;20029;-71
2022/06/30 05:39:46;;;;;;;8.50;7.80;;;;;;;18.50;88.99;100400.22;4994255;28;20021;-69
2022/06/30 05:42:12;;;;;;;9.70;8.55;;;;;;;18.60;88.91;100398.03;4986771;28;20037;-69
2022/06/30 05:44:37;;;;;;;9.32;8.60;;;;;;;18.69;88.96;100401.38;4983504;28;20346;-71
2022/06/30 05:47:03;;;;;;;9.40;8.68;;;;;;;18.83;89.02;100392.38;4997037;28;20255;-71
2022/06/30 05:49:28;;;;;;;9.18;8.27;;;;;;;18.93;88.64;100393.88;4965789;28;20602;-72
2022/06/30 05:51:54;;;;;;;11.30;9.02;;;;;;;19.05;89.03;100389.59;4975424;28;20033;-70
2022/06/30 05:54:19;;;;;;;10.70;9.70;;;;;;;19.16;89.19;100391.69;4965269;28;20218;-72
2022/06/30 05:56:45;;;;;;;10.38;9.40;;;;;;;19.23;88.77;100386.34;4999854;27;20106;-72
2022/06/30 05:59:10;;;;;;;9.68;8.80;;;;;;;19.35;88.91;100387.41;4966698;28;20436;-72
2022/06/30 06:01:35;;;;;;;10.10;9.38;;;;;;;19.49;88.20;100387.44;4975127;28;20037;-72
2022/06/30 06:04:01;;;;;;;10.57;9.48;;;;;;;19.64;87.92;100389.91;4976578;28;20052;-71
2022/06/30 06:06:26;;;;;;;10.85;9.75;;;;;;;19.75;87.64;100394.66;4967944;28;20315;-69
2022/06/30 06:08:52;;;;;;;11.38;10.25;;;;;;;19.82;87.41;100395.53;4983195;28;20889;-71
2022/06/30 06:11:17;;;;;;;10.45;9.55;;;;;;;19.95;87.36;100391.19;4989388;27;21084;-71
2022/06/30 06:13:42;;;;;;;10.43;9.63;;;;;;;20.04;87.12;100393.44;4989125;28;20040;-71
2022/06/30 06:16:08;;;;;;;9.95;9.25;;;;;;;20.14;85.90;100401.09;4971707;27;20883;-73
2022/06/30 06:18:33;;;;;;;10.50;9.40;;;;;;;20.24;85.20;100404.16;4970995;28;20010;-72
2022/06/30 06:20:59;;;;;;;10.80;9.98;;;;;;;20.37;84.25;100406.00;4979695;28;20013;-70
2022/06/30 06:23:24;;;;;;;10.20;9.02;;;;;;;20.51;84.10;100404.13;5006716;27;20443;-72
2022/06/30 06:25:51;;;;;;;10.10;9.30;;;;;;;20.57;83.30;100403.28;4993082;28;20014;-71
2022/06/30 06:31:01;;;;;;;9.85;8.75;;;;;;;20.77;81.30;100407.78;4979149;28;20107;-72
2022/06/30 06:33:26;;;;;;;9.60;8.80;;;;;;;20.88;81.89;100407.16;4985895;27;20574;-72
2022/06/30 06:35:52;;;;;;;9.15;8.45;;;;;;;21.00;79.99;100401.09;5001045;28;20112;-71
2022/06/30 06:38:17;;;;;;;9.05;8.40;;;;;;;21.12;78.63;100404.72;4994299;27;20021;-69
2022/06/30 06:40:43;;;;;;;9.05;8.25;;;;;;;21.20;77.91;100414.44;4981115;27;20984;-71
2022/06/30 06:43:08;;;;;;;8.20;7.65;;;;;;;21.31;77.32;100407.53;4990917;27;20491;-72
2022/06/30 06:45:33;;;;;;;8.43;7.57;;;;;;;21.35;77.06;100400.69;4960007;28;21009;-72
2022/06/30 06:47:59;;;;;;;9.10;8.20;;;;;;;21.42;76.27;100410.38;4969762;28;20009;-72
2022/06/30 06:50:24;;;;;;;8.00;7.47;;;;;;;21.48;75.04;100408.69;5009943;28;20045;-72
2022/06/30 06:52:50;;;;;;;8.68;7.90;;;;;;;21.67;73.68;100400.72;4992652;28;20016;-70
2022/06/30 06:55:19;;;;;;;7.72;7.00;;;;;;;21.69;73.45;100396.75;4998867;28;20514;-72
2022/06/30 06:57:45;;;;;;;8.25;7.60;;;;;;;21.69;73.42;100395.94;4972712;28;20072;-69
2022/06/30 07:00:14;;;;;;;9.30;7.82;;;;;;;21.76;74.38;100402.09;4991100;28;20049;-71
2022/06/30 07:02:40;;;;;;;9.82;9.07;;;;;;;21.81;75.13;100398.75;4960729;28;20041;-73
2022/06/30 07:05:07;;;;;;;9.13;8.48;;;;;;;21.92;73.05;100393.44;4968100;28;20399;-72
